CDT,Max TemperatureF,Mean TemperatureF,Min TemperatureF,Max Dew PointF,MeanDew PointF,Min DewpointF,Max Humidity, Mean Humidity, Min Humidity, Max Sea Level PressureIn, Mean Sea Level PressureIn, Min Sea Level PressureIn, Max VisibilityMiles, Mean VisibilityMiles, Min VisibilityMiles, Max Wind SpeedMPH, Mean Wind SpeedMPH, Max Gust SpeedMPH,PrecipitationIn, CloudCover, Events, WindDirDegrees
2013-7-1,82,69,55,63,53,50,86,61,35,30.18,30.14,30.11,10,10,5,15,4,20,0.06,3,Rain-Thunderstorm,48
2013-7-2,77,66,54,54,46,44,78,55,31,30.18,30.13,30.09,10,10,10,14,5,18,0.00,0,,94
2013-7-3,74,62,50,58,52,43,89,63,37,30.13,30.08,30.02,10,10,9,16,3,32,0.00,5,,157
2013-7-4,82,69,56,60,58,55,100,71,42,30.06,30.02,29.97,10,9,4,16,6,22,0.00,2,,191
2013-7-5,85,72,58,61,58,54,93,64,34,30.02,29.98,29.94,10,10,6,20,9,24,0.00,0,,176
2013-7-6,87,77,66,64,62,57,81,59,37,29.99,29.96,29.91,10,10,7,14,8,18,0.00,0,,191
2013-7-7,88,79,70,73,67,62,93,69,45,29.94,29.91,29.86,10,7,2,15,5,20,0.51,4,Rain-Thunderstorm,191
2013-7-8,86,77,67,72,68,66,97,76,55,29.98,29.92,29.88,10,7,0,16,3,22,1.82,6,Fog-Rain-Thunderstorm,68
2013-7-9,84,76,67,72,69,66,100,81,61,29.99,29.88,29.75,10,7,0,26,10,32,0.07,4,Fog-Rain-Thunderstorm,172
2013-7-10,76,67,58,68,56,50,90,67,43,30.04,29.93,29.80,10,10,9,23,9,28,0.00,2,,319
2013-7-11,81,69,57,58,55,50,93,65,36,30.13,30.09,30.05,10,9,6,10,4,13,0.00,0,,188
2013-7-12,82,70,57,60,56,54,87,64,40,30.14,30.09,30.05,10,10,8,17,9,22,0.00,0,,168
2013-7-13,83,73,63,62,58,53,78,61,43,30.16,30.12,30.06,10,10,10,14,7,20,0.00,0,,170
2013-7-14,86,73,60,65,61,56,90,69,47,30.24,30.20,30.17,10,10,10,13,5,16,0.00,1,,160
2013-7-15,88,75,64,73,68,63,93,72,51,30.29,30.26,30.22,10,8,2,15,3,21,0.01,2,Rain,121
2013-7-16,92,82,71,73,71,69,93,71,49,30.27,30.23,30.19,10,8,2,15,7,21,0.00,1,,207
2013-7-17,92,83,73,72,69,66,93,69,44,30.26,30.21,30.14,10,10,10,16,6,21,0.00,1,,257
2013-7-18,91,83,74,71,69,68,87,67,47,30.13,29.97,29.80,10,9,0,30,9,40,0.31,2,Rain,231
2013-7-19,89,78,67,71,65,57,79,60,40,29.83,29.74,29.69,10,9,2,29,12,37,0.18,2,Rain-Thunderstorm,269
2013-7-20,76,70,64,59,55,50,78,61,43,29.99,29.91,29.83,10,10,10,15,5,20,0.00,5,,354
2013-7-21,71,64,56,58,54,48,93,77,61,30.03,29.98,29.92,10,10,10,15,8,20,0.01,5,,123
2013-7-22,84,71,58,70,62,57,100,76,51,29.90,29.78,29.64,10,7,0,20,9,26,0.00,5,Fog-Thunderstorm,168
2013-7-23,72,63,53,56,48,44,86,63,40,30.04,29.91,29.76,10,10,10,17,8,24,0.00,3,,351
2013-7-24,75,63,50,52,49,46,93,67,41,30.11,30.06,30.02,10,10,10,12,2,15,0.00,3,,238
2013-7-25,80,66,52,61,57,52,93,72,51,30.02,29.98,29.93,10,10,10,22,8,29,T,2,Rain-Thunderstorm,193
2013-7-26,76,64,51,64,58,45,93,68,43,29.98,29.89,29.83,10,8,0,30,10,40,0.49,7,Fog-Rain-Thunderstorm,256
2013-7-27,61,54,47,49,45,41,89,72,55,29.96,29.90,29.84,10,10,3,17,9,22,0.04,7,Rain,307
2013-7-28,69,58,47,55,49,44,93,75,56,30.03,29.92,29.84,10,10,5,22,11,28,0.01,7,Rain,314
2013-7-29,76,63,50,56,50,46,89,66,43,30.16,30.11,30.01,10,10,10,9,5,14,0.00,2,,308
2013-7-30,71,64,57,62,58,55,93,80,66,30.18,30.13,30.08,10,10,10,9,4,12,0.02,6,Rain,142
2013-7-31,78,69,60,66,60,55,93,73,53,30.08,30.01,29.93,10,9,2,16,6,22,0.14,5,Rain-Thunderstorm,269